sensor_id;sensor_type;location;lat;lon;timestamp;temperature;humidity
67901;DHT22;54700;51.796;10.956;2023-02-03T00:00:58;3.40;99.90
67901;DHT22;54700;51.796;10.956;2023-02-03T00:03:25;3.40;99.90
67901;DHT22;54700;51.796;10.956;2023-02-03T00:05:52;3.40;99.90
67901;DHT22;54700;51.796;10.956;2023-02-03T00:08:19;3.40;99.90
67901;DHT22;54700;51.796;10.956;2023-02-03T00:10:48;3.50;99.90
67901;DHT22;54700;51.796;10.956;2023-02-03T00:13:15;3.50;99.90
67901;DHT22;54700;51.796;10.956;2023-02-03T00:15:43;3.50;99.90
67901;DHT22;54700;51.796;10.956;2023-02-03T00:18:10;3.60;99.90
67901;DHT22;54700;51.796;10.956;2023-02-03T00:20:36;3.70;99.90
67901;DHT22;54700;51.796;10.956;2023-02-03T00:23:03;3.70;99.90
67901;DHT22;54700;51.796;10.956;2023-02-03T00:25:31;3.90;99.90
67901;DHT22;54700;51.796;10.956;2023-02-03T00:27:58;3.90;99.90
67901;DHT22;54700;51.796;10.956;2023-02-03T00:30:24;4.00;99.90
67901;DHT22;54700;51.796;10.956;2023-02-03T00:32:53;4.20;99.90
67901;DHT22;54700;51.796;10.956;2023-02-03T00:35:20;4.30;99.90
67901;DHT22;54700;51.796;10.956;2023-02-03T00:37:49;4.40;99.90
67901;DHT22;54700;51.796;10.956;2023-02-03T00:40:18;4.40;99.90
67901;DHT22;54700;51.796;10.956;2023-02-03T00:42:45;4.40;99.90
67901;DHT22;54700;51.796;10.956;2023-02-03T00:45:12;4.40;99.90
67901;DHT22;54700;51.796;10.956;2023-02-03T00:47:38;4.40;99.90
67901;DHT22;54700;51.796;10.956;2023-02-03T00:50:07;4.40;99.90
67901;DHT22;54700;51.796;10.956;2023-02-03T00:52:35;4.60;99.90
67901;DHT22;54700;51.796;10.956;2023-02-03T00:55:02;4.80;99.90
67901;DHT22;54700;51.796;10.956;2023-02-03T00:57:29;5.00;99.90
67901;DHT22;54700;51.796;10.956;2023-02-03T00:59:56;5.10;99.90
67901;DHT22;54700;51.796;10.956;2023-02-03T01:02:23;5.30;99.90
67901;DHT22;54700;51.796;10.956;2023-02-03T01:04:50;5.40;99.90
67901;DHT22;54700;51.796;10.956;2023-02-03T01:07:19;5.40;99.90
67901;DHT22;54700;51.796;10.956;2023-02-03T01:09:46;5.60;99.90
67901;DHT22;54700;51.796;10.956;2023-02-03T01:12:12;5.60;99.90
67901;DHT22;54700;51.796;10.956;2023-02-03T01:14:39;5.70;99.90
67901;DHT22;54700;51.796;10.956;2023-02-03T01:17:06;5.70;99.90
67901;DHT22;54700;51.796;10.956;2023-02-03T01:19:33;5.70;99.90
67901;DHT22;54700;51.796;10.956;2023-02-03T01:21:59;5.70;99.90
67901;DHT22;54700;51.796;10.956;2023-02-03T01:24:29;5.80;99.90
67901;DHT22;54700;51.796;10.956;2023-02-03T01:26:56;5.80;99.90
67901;DHT22;54700;51.796;10.956;2023-02-03T01:29:23;5.80;99.90
67901;DHT22;54700;51.796;10.956;2023-02-03T01:31:49;5.70;99.90
67901;DHT22;54700;51.796;10.956;2023-02-03T01:34:16;5.70;99.90
67901;DHT22;54700;51.796;10.956;2023-02-03T01:36:43;5.70;99.90
67901;DHT22;54700;51.796;10.956;2023-02-03T01:39:11;5.70;99.90
67901;DHT22;54700;51.796;10.956;2023-02-03T01:41:39;5.80;99.90
67901;DHT22;54700;51.796;10.956;2023-02-03T01:47:10;5.90;99.90
67901;DHT22;54700;51.796;10.956;2023-02-03T01:49:41;6.10;99.90
67901;DHT22;54700;51.796;10.956;2023-02-03T01:52:12;6.20;99.90
67901;DHT22;54700;51.796;10.956;2023-02-03T01:54:41;6.30;99.90
67901;DHT22;54700;51.796;10.956;2023-02-03T01:57:12;6.40;99.90
67901;DHT22;54700;51.796;10.956;2023-02-03T01:59:42;6.50;99.90
67901;DHT22;54700;51.796;10.956;2023-02-03T02:02:09;6.60;99.90
67901;DHT22;54700;51.796;10.956;2023-02-03T02:04:38;6.60;99.90
67901;DHT22;54700;51.796;10.956;2023-02-03T02:07:18;6.70;99.90
67901;DHT22;54700;51.796;10.956;2023-02-03T02:09:45;6.70;99.90
67901;DHT22;54700;51.796;10.956;2023-02-03T02:12:14;6.80;99.90
67901;DHT22;54700;51.796;10.956;2023-02-03T02:14:41;6.80;99.90
67901;DHT22;54700;51.796;10.956;2023-02-03T02:17:11;6.80;99.90
67901;DHT22;54700;51.796;10.956;2023-02-03T02:19:57;6.90;99.90
67901;DHT22;54700;51.796;10.956;2023-02-03T02:22:51;7.00;99.80
67901;DHT22;54700;51.796;10.956;2023-02-03T02:25:47;7.10;99.80
67901;DHT22;54700;51.796;10.956;2023-02-03T02:28:36;7.00;99.90
67901;DHT22;54700;51.796;10.956;2023-02-03T02:31:33;7.00;99.90
67901;DHT22;54700;51.796;10.956;2023-02-03T02:34:10;7.00;99.90
67901;DHT22;54700;51.796;10.956;2023-02-03T02:36:44;7.00;99.90
67901;DHT22;54700;51.796;10.956;2023-02-03T02:39:24;7.00;99.90
67901;DHT22;54700;51.796;10.956;2023-02-03T02:42:04;7.00;99.90
67901;DHT22;54700;51.796;10.956;2023-02-03T02:44:38;7.00;99.90
67901;DHT22;54700;51.796;10.956;2023-02-03T02:47:10;7.00;99.90
67901;DHT22;54700;51.796;10.956;2023-02-03T02:49:43;7.00;99.90
67901;DHT22;54700;51.796;10.956;2023-02-03T02:52:15;7.10;99.90
67901;DHT22;54700;51.796;10.956;2023-02-03T02:54:46;7.10;99.90
67901;DHT22;54700;51.796;10.956;2023-02-03T02:57:16;7.00;99.90
67901;DHT22;54700;51.796;10.956;2023-02-03T02:59:45;6.90;99.90
67901;DHT22;54700;51.796;10.956;2023-02-03T03:02:14;6.80;99.90
67901;DHT22;54700;51.796;10.956;2023-02-03T03:04:41;6.80;99.90
67901;DHT22;54700;51.796;10.956;2023-02-03T03:07:12;6.80;99.90
67901;DHT22;54700;51.796;10.956;2023-02-03T03:09:43;6.90;99.90
67901;DHT22;54700;51.796;10.956;2023-02-03T03:12:13;6.90;99.90
67901;DHT22;54700;51.796;10.956;2023-02-03T03:14:44;7.00;99.90
67901;DHT22;54700;51.796;10.956;2023-02-03T03:17:18;7.10;99.90
67901;DHT22;54700;51.796;10.956;2023-02-03T03:19:51;7.00;99.90
67901;DHT22;54700;51.796;10.956;2023-02-03T03:22:22;7.00;99.90
67901;DHT22;54700;51.796;10.956;2023-02-03T03:24:54;6.90;99.90
67901;DHT22;54700;51.796;10.956;2023-02-03T03:27:27;6.90;99.90
67901;DHT22;54700;51.796;10.956;2023-02-03T03:29:59;6.80;99.90
67901;DHT22;54700;51.796;10.956;2023-02-03T03:32:29;6.80;99.90
67901;DHT22;54700;51.796;10.956;2023-02-03T03:34:58;6.70;99.90
67901;DHT22;54700;51.796;10.956;2023-02-03T03:37:28;6.70;99.90
67901;DHT22;54700;51.796;10.956;2023-02-03T03:40:01;6.60;99.90
67901;DHT22;54700;51.796;10.956;2023-02-03T03:42:36;6.60;99.90
67901;DHT22;54700;51.796;10.956;2023-02-03T03:45:08;6.60;99.90
67901;DHT22;54700;51.796;10.956;2023-02-03T03:47:43;6.60;99.90
67901;DHT22;54700;51.796;10.956;2023-02-03T03:50:17;6.60;99.90
67901;DHT22;54700;51.796;10.956;2023-02-03T03:52:46;6.60;99.90
67901;DHT22;54700;51.796;10.956;2023-02-03T03:55:15;6.70;99.90
67901;DHT22;54700;51.796;10.956;2023-02-03T03:57:45;6.70;99.90
67901;DHT22;54700;51.796;10.956;2023-02-03T04:00:20;6.70;99.90
67901;DHT22;54700;51.796;10.956;2023-02-03T04:02:51;6.70;99.90
67901;DHT22;54700;51.796;10.956;2023-02-03T04:05:21;6.80;99.50
67901;DHT22;54700;51.796;10.956;2023-02-03T04:07:50;6.80;99.20
67901;DHT22;54700;51.796;10.956;2023-02-03T04:10:20;6.80;98.80
67901;DHT22;54700;51.796;10.956;2023-02-03T04:12:50;6.90;98.10
67901;DHT22;54700;51.796;10.956;2023-02-03T04:15:17;7.10;96.10
67901;DHT22;54700;51.796;10.956;2023-02-03T04:17:44;7.20;96.70
67901;DHT22;54700;51.796;10.956;2023-02-03T04:20:12;7.30;96.30
67901;DHT22;54700;51.796;10.956;2023-02-03T04:22:39;7.30;95.80
67901;DHT22;54700;51.796;10.956;2023-02-03T04:25:06;7.40;94.60
67901;DHT22;54700;51.796;10.956;2023-02-03T04:27:33;7.40;93.50
67901;DHT22;54700;51.796;10.956;2023-02-03T04:30:00;7.40;92.10
67901;DHT22;54700;51.796;10.956;2023-02-03T04:32:27;7.60;91.00
67901;DHT22;54700;51.796;10.956;2023-02-03T04:34:55;7.60;90.50
67901;DHT22;54700;51.796;10.956;2023-02-03T04:37:23;7.60;90.80
67901;DHT22;54700;51.796;10.956;2023-02-03T04:39:51;7.50;90.00
67901;DHT22;54700;51.796;10.956;2023-02-03T04:42:19;7.60;88.10
67901;DHT22;54700;51.796;10.956;2023-02-03T04:44:46;7.60;89.00
67901;DHT22;54700;51.796;10.956;2023-02-03T04:47:13;7.70;88.40
67901;DHT22;54700;51.796;10.956;2023-02-03T04:49:41;7.70;88.70
67901;DHT22;54700;51.796;10.956;2023-02-03T04:52:08;7.70;89.70
67901;DHT22;54700;51.796;10.956;2023-02-03T04:54:37;7.60;90.30
67901;DHT22;54700;51.796;10.956;2023-02-03T04:57:04;7.60;89.70
67901;DHT22;54700;51.796;10.956;2023-02-03T04:59:31;7.70;89.00
67901;DHT22;54700;51.796;10.956;2023-02-03T05:02:00;7.60;89.30
67901;DHT22;54700;51.796;10.956;2023-02-03T05:04:27;7.60;90.20
67901;DHT22;54700;51.796;10.956;2023-02-03T05:06:54;7.60;88.90
67901;DHT22;54700;51.796;10.956;2023-02-03T05:09:21;7.70;90.10
67901;DHT22;54700;51.796;10.956;2023-02-03T05:11:51;7.70;86.20
67901;DHT22;54700;51.796;10.956;2023-02-03T05:14:18;7.70;84.80
67901;DHT22;54700;51.796;10.956;2023-02-03T05:16:45;7.80;84.60
67901;DHT22;54700;51.796;10.956;2023-02-03T05:19:12;7.70;84.10
67901;DHT22;54700;51.796;10.956;2023-02-03T05:21:39;7.60;84.50
67901;DHT22;54700;51.796;10.956;2023-02-03T05:24:06;7.70;81.80
67901;DHT22;54700;51.796;10.956;2023-02-03T05:26:33;7.70;81.20
67901;DHT22;54700;51.796;10.956;2023-02-03T05:29:01;7.80;80.00
67901;DHT22;54700;51.796;10.956;2023-02-03T05:31:28;7.80;81.10
67901;DHT22;54700;51.796;10.956;2023-02-03T05:33:55;7.90;80.50
67901;DHT22;54700;51.796;10.956;2023-02-03T05:36:22;7.90;82.30
67901;DHT22;54700;51.796;10.956;2023-02-03T05:38:48;7.80;83.00
67901;DHT22;54700;51.796;10.956;2023-02-03T05:41:15;7.90;83.40
67901;DHT22;54700;51.796;10.956;2023-02-03T05:43:59;7.90;84.60
67901;DHT22;54700;51.796;10.956;2023-02-03T05:46:27;7.90;85.10
67901;DHT22;54700;51.796;10.956;2023-02-03T05:48:54;7.80;86.30
67901;DHT22;54700;51.796;10.956;2023-02-03T05:51:20;7.80;85.30
67901;DHT22;54700;51.796;10.956;2023-02-03T05:53:47;7.90;86.30
67901;DHT22;54700;51.796;10.956;2023-02-03T05:56:14;7.90;87.90
67901;DHT22;54700;51.796;10.956;2023-02-03T05:58:41;7.90;88.90
67901;DHT22;54700;51.796;10.956;2023-02-03T06:01:08;7.90;90.40
67901;DHT22;54700;51.796;10.956;2023-02-03T06:03:37;7.90;90.00
67901;DHT22;54700;51.796;10.956;2023-02-03T06:06:06;7.90;90.20
67901;DHT22;54700;51.796;10.956;2023-02-03T06:08:33;7.90;90.40
67901;DHT22;54700;51.796;10.956;2023-02-03T06:10:59;7.90;91.00
67901;DHT22;54700;51.796;10.956;2023-02-03T06:13:26;7.90;90.60
67901;DHT22;54700;51.796;10.956;2023-02-03T06:15:53;7.90;90.80
67901;DHT22;54700;51.796;10.956;2023-02-03T06:18:20;7.80;91.40
67901;DHT22;54700;51.796;10.956;2023-02-03T06:20:48;7.80;91.30
67901;DHT22;54700;51.796;10.956;2023-02-03T06:23:16;7.70;91.20
67901;DHT22;54700;51.796;10.956;2023-02-03T06:25:44;7.80;90.90
67901;DHT22;54700;51.796;10.956;2023-02-03T06:28:12;7.80;91.10
67901;DHT22;54700;51.796;10.956;2023-02-03T06:30:39;7.80;91.10
67901;DHT22;54700;51.796;10.956;2023-02-03T06:33:06;7.70;90.80
67901;DHT22;54700;51.796;10.956;2023-02-03T06:35:33;7.80;90.70
67901;DHT22;54700;51.796;10.956;2023-02-03T06:38:01;7.80;90.80
67901;DHT22;54700;51.796;10.956;2023-02-03T06:40:28;7.80;90.00
67901;DHT22;54700;51.796;10.956;2023-02-03T06:42:54;7.80;90.10
67901;DHT22;54700;51.796;10.956;2023-02-03T06:45:21;7.80;90.50
67901;DHT22;54700;51.796;10.956;2023-02-03T06:47:49;7.80;90.30
67901;DHT22;54700;51.796;10.956;2023-02-03T06:50:15;7.80;90.90
67901;DHT22;54700;51.796;10.956;2023-02-03T06:52:42;7.80;90.80
67901;DHT22;54700;51.796;10.956;2023-02-03T06:55:10;7.80;91.10
67901;DHT22;54700;51.796;10.956;2023-02-03T06:57:41;7.80;91.40
67901;DHT22;54700;51.796;10.956;2023-02-03T07:00:10;7.80;91.80
67901;DHT22;54700;51.796;10.956;2023-02-03T07:02:38;7.80;92.00
67901;DHT22;54700;51.796;10.956;2023-02-03T07:05:05;7.80;92.30
67901;DHT22;54700;51.796;10.956;2023-02-03T07:07:34;7.80;92.10
67901;DHT22;54700;51.796;10.956;2023-02-03T07:10:01;7.70;92.10
67901;DHT22;54700;51.796;10.956;2023-02-03T07:12:29;7.80;91.70
67901;DHT22;54700;51.796;10.956;2023-02-03T07:14:56;7.80;91.70
67901;DHT22;54700;51.796;10.956;2023-02-03T07:17:23;7.80;91.80
67901;DHT22;54700;51.796;10.956;2023-02-03T07:19:50;7.90;91.40
67901;DHT22;54700;51.796;10.956;2023-02-03T07:22:19;7.90;91.30
67901;DHT22;54700;51.796;10.956;2023-02-03T07:24:46;8.00;91.30
67901;DHT22;54700;51.796;10.956;2023-02-03T07:27:13;8.00;91.50
67901;DHT22;54700;51.796;10.956;2023-02-03T07:29:42;8.00;91.70
67901;DHT22;54700;51.796;10.956;2023-02-03T07:32:08;8.00;91.90
67901;DHT22;54700;51.796;10.956;2023-02-03T07:34:35;8.00;92.10
67901;DHT22;54700;51.796;10.956;2023-02-03T07:37:02;8.00;92.20
67901;DHT22;54700;51.796;10.956;2023-02-03T07:39:29;8.00;92.10
67901;DHT22;54700;51.796;10.956;2023-02-03T07:41:57;8.00;92.10
67901;DHT22;54700;51.796;10.956;2023-02-03T07:44:24;8.00;91.40
67901;DHT22;54700;51.796;10.956;2023-02-03T07:46:52;8.10;90.90
67901;DHT22;54700;51.796;10.956;2023-02-03T07:49:19;8.10;91.20
67901;DHT22;54700;51.796;10.956;2023-02-03T07:51:45;8.20;91.30
67901;DHT22;54700;51.796;10.956;2023-02-03T07:54:12;8.20;90.70
67901;DHT22;54700;51.796;10.956;2023-02-03T07:56:40;8.30;90.90
67901;DHT22;54700;51.796;10.956;2023-02-03T07:59:08;8.30;90.90
67901;DHT22;54700;51.796;10.956;2023-02-03T08:01:35;8.30;90.70
67901;DHT22;54700;51.796;10.956;2023-02-03T08:04:03;8.40;90.20
67901;DHT22;54700;51.796;10.956;2023-02-03T08:06:31;8.40;90.20
67901;DHT22;54700;51.796;10.956;2023-02-03T08:08:58;8.40;90.20
67901;DHT22;54700;51.796;10.956;2023-02-03T08:11:25;8.50;89.10
67901;DHT22;54700;51.796;10.956;2023-02-03T08:13:52;8.50;89.70
67901;DHT22;54700;51.796;10.956;2023-02-03T08:16:19;8.50;89.20
67901;DHT22;54700;51.796;10.956;2023-02-03T08:18:47;8.50;89.30
67901;DHT22;54700;51.796;10.956;2023-02-03T08:21:15;8.50;90.00
67901;DHT22;54700;51.796;10.956;2023-02-03T08:23:42;8.50;90.00
67901;DHT22;54700;51.796;10.956;2023-02-03T08:26:09;8.50;89.80
67901;DHT22;54700;51.796;10.956;2023-02-03T08:28:37;8.50;89.60
67901;DHT22;54700;51.796;10.956;2023-02-03T08:31:10;8.60;89.10
67901;DHT22;54700;51.796;10.956;2023-02-03T08:33:37;8.60;89.40
67901;DHT22;54700;51.796;10.956;2023-02-03T08:36:04;8.50;90.00
67901;DHT22;54700;51.796;10.956;2023-02-03T08:38:37;8.60;89.60
67901;DHT22;54700;51.796;10.956;2023-02-03T08:41:07;8.70;89.10
67901;DHT22;54700;51.796;10.956;2023-02-03T08:43:35;8.70;89.70
67901;DHT22;54700;51.796;10.956;2023-02-03T08:46:02;8.70;90.00
67901;DHT22;54700;51.796;10.956;2023-02-03T08:48:30;8.70;90.40
67901;DHT22;54700;51.796;10.956;2023-02-03T08:50:57;8.70;90.60
67901;DHT22;54700;51.796;10.956;2023-02-03T08:53:24;8.80;91.10
67901;DHT22;54700;51.796;10.956;2023-02-03T08:55:52;8.70;91.20
67901;DHT22;54700;51.796;10.956;2023-02-03T08:58:20;8.80;91.00
67901;DHT22;54700;51.796;10.956;2023-02-03T09:00:47;8.70;90.80
67901;DHT22;54700;51.796;10.956;2023-02-03T09:03:17;8.80;90.60
67901;DHT22;54700;51.796;10.956;2023-02-03T09:05:44;8.80;90.20
67901;DHT22;54700;51.796;10.956;2023-02-03T09:08:11;8.80;88.90
67901;DHT22;54700;51.796;10.956;2023-02-03T09:10:38;8.90;88.30
67901;DHT22;54700;51.796;10.956;2023-02-03T09:13:06;8.90;87.70
67901;DHT22;54700;51.796;10.956;2023-02-03T09:15:33;8.90;87.40
67901;DHT22;54700;51.796;10.956;2023-02-03T09:18:00;9.00;87.80
67901;DHT22;54700;51.796;10.956;2023-02-03T09:20:26;9.00;87.20
67901;DHT22;54700;51.796;10.956;2023-02-03T09:22:56;9.00;86.60
67901;DHT22;54700;51.796;10.956;2023-02-03T09:25:23;9.00;86.90
67901;DHT22;54700;51.796;10.956;2023-02-03T09:27:50;9.00;86.10
67901;DHT22;54700;51.796;10.956;2023-02-03T09:30:18;9.00;87.20
67901;DHT22;54700;51.796;10.956;2023-02-03T09:32:45;9.00;87.00
67901;DHT22;54700;51.796;10.956;2023-02-03T09:35:19;9.00;87.50
67901;DHT22;54700;51.796;10.956;2023-02-03T09:37:46;9.00;88.60
67901;DHT22;54700;51.796;10.956;2023-02-03T09:40:16;9.00;90.20
67901;DHT22;54700;51.796;10.956;2023-02-03T09:42:58;9.00;91.70
67901;DHT22;54700;51.796;10.956;2023-02-03T09:45:35;8.90;92.30
67901;DHT22;54700;51.796;10.956;2023-02-03T09:48:02;8.80;93.50
67901;DHT22;54700;51.796;10.956;2023-02-03T09:50:36;8.80;93.60
67901;DHT22;54700;51.796;10.956;2023-02-03T09:53:07;8.70;93.70
67901;DHT22;54700;51.796;10.956;2023-02-03T09:55:45;8.70;93.90
67901;DHT22;54700;51.796;10.956;2023-02-03T09:58:14;8.70;93.40
67901;DHT22;54700;51.796;10.956;2023-02-03T10:00:47;8.70;92.90
67901;DHT22;54700;51.796;10.956;2023-02-03T10:03:19;8.70;93.10
67901;DHT22;54700;51.796;10.956;2023-02-03T10:06:04;8.70;93.50
67901;DHT22;54700;51.796;10.956;2023-02-03T10:08:41;8.70;93.40
67901;DHT22;54700;51.796;10.956;2023-02-03T10:11:19;8.70;93.20
67901;DHT22;54700;51.796;10.956;2023-02-03T10:13:58;8.80;92.90
67901;DHT22;54700;51.796;10.956;2023-02-03T10:16:44;8.80;92.50
67901;DHT22;54700;51.796;10.956;2023-02-03T10:19:24;8.80;92.30
67901;DHT22;54700;51.796;10.956;2023-02-03T10:21:54;8.80;92.50
67901;DHT22;54700;51.796;10.956;2023-02-03T10:24:25;8.80;93.00
67901;DHT22;54700;51.796;10.956;2023-02-03T10:27:05;8.80;92.30
67901;DHT22;54700;51.796;10.956;2023-02-03T10:29:42;8.80;92.80
67901;DHT22;54700;51.796;10.956;2023-02-03T10:32:11;8.80;94.10
67901;DHT22;54700;51.796;10.956;2023-02-03T10:34:38;8.70;94.70
67901;DHT22;54700;51.796;10.956;2023-02-03T10:37:09;8.60;96.10
67901;DHT22;54700;51.796;10.956;2023-02-03T10:39:44;8.60;96.20
67901;DHT22;54700;51.796;10.956;2023-02-03T10:42:13;8.50;96.90
67901;DHT22;54700;51.796;10.956;2023-02-03T10:44:41;8.50;97.30
67901;DHT22;54700;51.796;10.956;2023-02-03T10:47:16;8.40;96.40
67901;DHT22;54700;51.796;10.956;2023-02-03T10:49:49;8.50;97.60
67901;DHT22;54700;51.796;10.956;2023-02-03T10:52:25;8.40;97.40
67901;DHT22;54700;51.796;10.956;2023-02-03T10:54:54;8.40;97.60
67901;DHT22;54700;51.796;10.956;2023-02-03T10:57:26;8.40;97.80
67901;DHT22;54700;51.796;10.956;2023-02-03T11:00:02;8.40;98.40
67901;DHT22;54700;51.796;10.956;2023-02-03T11:02:35;8.40;98.30
67901;DHT22;54700;51.796;10.956;2023-02-03T11:05:18;8.40;97.80
67901;DHT22;54700;51.796;10.956;2023-02-03T11:07:46;8.40;97.80
67901;DHT22;54700;51.796;10.956;2023-02-03T11:10:24;8.30;97.60
67901;DHT22;54700;51.796;10.956;2023-02-03T11:12:51;8.40;97.80
67901;DHT22;54700;51.796;10.956;2023-02-03T11:15:35;8.30;98.10
67901;DHT22;54700;51.796;10.956;2023-02-03T11:18:04;8.30;99.30
67901;DHT22;54700;51.796;10.956;2023-02-03T11:20:30;8.20;99.90
67901;DHT22;54700;51.796;10.956;2023-02-03T11:23:01;8.10;99.90
67901;DHT22;54700;51.796;10.956;2023-02-03T11:25:31;8.00;99.90
67901;DHT22;54700;51.796;10.956;2023-02-03T11:28:02;7.90;99.90
67901;DHT22;54700;51.796;10.956;2023-02-03T11:30:31;7.90;99.90
67901;DHT22;54700;51.796;10.956;2023-02-03T11:33:02;7.80;99.90
67901;DHT22;54700;51.796;10.956;2023-02-03T11:35:50;7.80;99.90
67901;DHT22;54700;51.796;10.956;2023-02-03T11:38:27;7.80;99.90
67901;DHT22;54700;51.796;10.956;2023-02-03T11:40:57;7.70;99.90
67901;DHT22;54700;51.796;10.956;2023-02-03T11:43:25;7.70;99.90
67901;DHT22;54700;51.796;10.956;2023-02-03T11:45:58;7.70;99.90
67901;DHT22;54700;51.796;10.956;2023-02-03T11:48:30;7.80;99.90
67901;DHT22;54700;51.796;10.956;2023-02-03T11:51:03;7.80;99.90
67901;DHT22;54700;51.796;10.956;2023-02-03T11:53:44;7.80;99.90
67901;DHT22;54700;51.796;10.956;2023-02-03T11:56:29;7.80;99.90
67901;DHT22;54700;51.796;10.956;2023-02-03T11:59:07;7.80;97.10
67901;DHT22;54700;51.796;10.956;2023-02-03T12:01:57;7.90;94.80
67901;DHT22;54700;51.796;10.956;2023-02-03T12:04:59;8.00;94.20
67901;DHT22;54700;51.796;10.956;2023-02-03T12:07:42;8.00;92.40
67901;DHT22;54700;51.796;10.956;2023-02-03T12:10:25;8.10;90.20
67901;DHT22;54700;51.796;10.956;2023-02-03T12:13:00;8.20;91.00
67901;DHT22;54700;51.796;10.956;2023-02-03T12:15:43;8.20;91.60
67901;DHT22;54700;51.796;10.956;2023-02-03T12:18:28;8.20;91.50
67901;DHT22;54700;51.796;10.956;2023-02-03T12:21:06;8.20;92.50
67901;DHT22;54700;51.796;10.956;2023-02-03T12:23:58;8.20;92.80
67901;DHT22;54700;51.796;10.956;2023-02-03T12:26:32;8.20;93.10
67901;DHT22;54700;51.796;10.956;2023-02-03T12:29:05;8.20;93.00
67901;DHT22;54700;51.796;10.956;2023-02-03T12:31:37;8.30;92.50
67901;DHT22;54700;51.796;10.956;2023-02-03T12:34:11;8.30;91.70
67901;DHT22;54700;51.796;10.956;2023-02-03T12:36:45;8.30;91.70
67901;DHT22;54700;51.796;10.956;2023-02-03T12:39:18;8.30;90.90
67901;DHT22;54700;51.796;10.956;2023-02-03T12:41:49;8.30;90.80
67901;DHT22;54700;51.796;10.956;2023-02-03T12:44:25;8.40;90.50
67901;DHT22;54700;51.796;10.956;2023-02-03T12:47:00;8.40;90.80
67901;DHT22;54700;51.796;10.956;2023-02-03T12:49:32;8.40;87.60
67901;DHT22;54700;51.796;10.956;2023-02-03T12:52:08;8.40;86.80
67901;DHT22;54700;51.796;10.956;2023-02-03T12:54:43;8.40;87.40
67901;DHT22;54700;51.796;10.956;2023-02-03T12:57:17;8.50;89.90
67901;DHT22;54700;51.796;10.956;2023-02-03T12:59:51;8.40;87.00
67901;DHT22;54700;51.796;10.956;2023-02-03T13:02:38;8.40;85.80
67901;DHT22;54700;51.796;10.956;2023-02-03T13:05:16;8.40;86.80
67901;DHT22;54700;51.796;10.956;2023-02-03T13:07:50;8.40;85.10
67901;DHT22;54700;51.796;10.956;2023-02-03T13:10:25;8.40;84.90
67901;DHT22;54700;51.796;10.956;2023-02-03T13:12:57;8.50;83.90
67901;DHT22;54700;51.796;10.956;2023-02-03T13:15:25;8.40;84.10
67901;DHT22;54700;51.796;10.956;2023-02-03T13:17:59;8.40;82.40
67901;DHT22;54700;51.796;10.956;2023-02-03T13:20:32;8.40;81.80
67901;DHT22;54700;51.796;10.956;2023-02-03T13:23:04;8.50;82.10
67901;DHT22;54700;51.796;10.956;2023-02-03T13:25:38;8.50;80.40
67901;DHT22;54700;51.796;10.956;2023-02-03T13:28:18;8.50;79.20
67901;DHT22;54700;51.796;10.956;2023-02-03T13:31:10;8.50;78.50
67901;DHT22;54700;51.796;10.956;2023-02-03T13:33:49;8.40;78.00
67901;DHT22;54700;51.796;10.956;2023-02-03T13:39:32;8.40;76.70
67901;DHT22;54700;51.796;10.956;2023-02-03T13:42:09;8.40;78.50
67901;DHT22;54700;51.796;10.956;2023-02-03T13:44:47;8.40;76.20
67901;DHT22;54700;51.796;10.956;2023-02-03T13:47:20;8.40;76.40
67901;DHT22;54700;51.796;10.956;2023-02-03T13:49:51;8.40;75.70
67901;DHT22;54700;51.796;10.956;2023-02-03T13:52:28;8.40;75.40
67901;DHT22;54700;51.796;10.956;2023-02-03T13:55:01;8.40;74.20
67901;DHT22;54700;51.796;10.956;2023-02-03T13:57:31;8.40;73.90
67901;DHT22;54700;51.796;10.956;2023-02-03T14:00:01;8.40;74.40
67901;DHT22;54700;51.796;10.956;2023-02-03T14:02:40;8.40;74.00
67901;DHT22;54700;51.796;10.956;2023-02-03T14:20:32;8.40;72.80
67901;DHT22;54700;51.796;10.956;2023-02-03T14:23:06;8.40;74.00
67901;DHT22;54700;51.796;10.956;2023-02-03T14:25:39;8.40;73.10
67901;DHT22;54700;51.796;10.956;2023-02-03T14:28:12;8.40;73.70
67901;DHT22;54700;51.796;10.956;2023-02-03T14:31:00;8.40;73.70
67901;DHT22;54700;51.796;10.956;2023-02-03T14:36:41;8.30;70.60
67901;DHT22;54700;51.796;10.956;2023-02-03T14:45:33;8.30;68.70
67901;DHT22;54700;51.796;10.956;2023-02-03T14:48:15;8.20;67.60
67901;DHT22;54700;51.796;10.956;2023-02-03T14:50:56;8.20;67.10
67901;DHT22;54700;51.796;10.956;2023-02-03T14:56:30;8.20;68.20
67901;DHT22;54700;51.796;10.956;2023-02-03T14:59:28;8.20;67.30
67901;DHT22;54700;51.796;10.956;2023-02-03T15:02:08;8.20;67.50
67901;DHT22;54700;51.796;10.956;2023-02-03T15:04:39;8.10;67.10
67901;DHT22;54700;51.796;10.956;2023-02-03T15:07:06;8.10;67.70
67901;DHT22;54700;51.796;10.956;2023-02-03T15:09:35;8.10;67.30
67901;DHT22;54700;51.796;10.956;2023-02-03T15:12:15;8.10;67.60
67901;DHT22;54700;51.796;10.956;2023-02-03T15:14:42;8.10;66.90
67901;DHT22;54700;51.796;10.956;2023-02-03T15:17:19;8.00;66.20
67901;DHT22;54700;51.796;10.956;2023-02-03T15:19:48;8.00;66.30
67901;DHT22;54700;51.796;10.956;2023-02-03T15:22:19;8.00;66.60
67901;DHT22;54700;51.796;10.956;2023-02-03T15:24:47;8.00;66.60
67901;DHT22;54700;51.796;10.956;2023-02-03T15:27:23;8.00;65.50
67901;DHT22;54700;51.796;10.956;2023-02-03T15:29:51;8.00;66.00
67901;DHT22;54700;51.796;10.956;2023-02-03T15:32:21;7.90;64.90
67901;DHT22;54700;51.796;10.956;2023-02-03T15:34:53;7.90;64.70
67901;DHT22;54700;51.796;10.956;2023-02-03T15:37:22;7.90;65.10
67901;DHT22;54700;51.796;10.956;2023-02-03T15:39:57;7.80;64.90
67901;DHT22;54700;51.796;10.956;2023-02-03T15:42:28;7.80;64.00
67901;DHT22;54700;51.796;10.956;2023-02-03T15:45:02;7.80;64.10
67901;DHT22;54700;51.796;10.956;2023-02-03T15:47:34;7.80;64.00
67901;DHT22;54700;51.796;10.956;2023-02-03T15:50:21;7.70;63.80
67901;DHT22;54700;51.796;10.956;2023-02-03T15:52:55;7.70;63.90
67901;DHT22;54700;51.796;10.956;2023-02-03T15:55:27;7.70;62.80
67901;DHT22;54700;51.796;10.956;2023-02-03T15:57:59;7.70;63.20
67901;DHT22;54700;51.796;10.956;2023-02-03T16:00:34;7.70;63.50
67901;DHT22;54700;51.796;10.956;2023-02-03T16:03:05;7.70;64.00
67901;DHT22;54700;51.796;10.956;2023-02-03T16:05:42;7.60;63.90
67901;DHT22;54700;51.796;10.956;2023-02-03T16:08:26;7.60;62.80
67901;DHT22;54700;51.796;10.956;2023-02-03T16:10:54;7.60;63.00
67901;DHT22;54700;51.796;10.956;2023-02-03T16:13:22;7.60;62.50
67901;DHT22;54700;51.796;10.956;2023-02-03T16:16:00;7.60;63.00
67901;DHT22;54700;51.796;10.956;2023-02-03T16:18:34;7.60;63.10
67901;DHT22;54700;51.796;10.956;2023-02-03T16:21:02;7.50;61.50
67901;DHT22;54700;51.796;10.956;2023-02-03T16:23:29;7.60;60.30
67901;DHT22;54700;51.796;10.956;2023-02-03T16:26:04;7.60;60.70
67901;DHT22;54700;51.796;10.956;2023-02-03T16:28:40;7.60;61.60